Latest Weather Observations for Port Lincoln Airport

IDS60801

Issued at 6:34 pm CST Sunday 19 April 2015 (issued every 30 minutes, with the page automatically refreshed every 10 minutes)

About weather observations | Map of weather stations | Latest weather observations for SA | Other Formats
Station Details ID: 018192 Name: PORT LINCOLN AWS Lat: -34.60 Lon: 135.88 Height: 8.5 m
Data from the previous 72 hours. | See also: Recent months at Port Lincoln Airport
Date/Time
CST
Temp
°C
App
Temp
°C
Dew
Point
Rel
Hum
%
Delta-T
°C
Wind Press
QNH
hPa
Press
MSL
hPa
Rain
since 9 am
mm
Dir
 
Spd
km/h
Gust
km/h
Spd
kts
Gust
kts
19/06:30pm 12.7 7.9 4.7 58 3.6 SE 19 26 10 14 1035.9 1035.9 0.0
19/06:00pm 13.7 7.8 4.0 52 4.4 SE 24 28 13 15 1035.6 1035.6 0.0
19/05:30pm 14.4 9.0 4.7 52 4.5 SE 22 32 12 17 1035.3 1035.3 0.0
19/05:00pm 15.1 9.8 4.8 50 4.8 SE 22 28 12 15 1035.2 1035.2 0.0
19/04:30pm 15.4 9.6 4.5 48 5.0 SE 24 33 13 18 1035.1 1035.1 0.0
19/04:00pm 15.9 9.6 4.0 45 5.5 SE 26 32 14 17 1035.0 1035.0 0.0
19/03:30pm 16.1 10.1 5.1 48 5.2 SE 26 32 14 17 1034.9 1034.9 0.0
19/03:00pm 16.3 9.9 3.0 41 6.0 SE 26 33 14 18 1034.7 1034.7 0.0
19/02:30pm 16.5 9.8 3.9 43 5.8 SE 28 32 15 17 1034.6 1034.6 0.0
19/02:00pm 16.6 9.7 2.6 39 6.3 SE 28 37 15 20 1034.4 1034.4 0.0
19/01:30pm 16.0 8.6 3.8 44 5.6 SE 32 39 17 21 1034.5 1034.5 0.0
19/01:00pm 16.4 9.6 5.1 47 5.3 SE 30 39 16 21 1034.5 1034.5 0.0
19/12:30pm 16.3 8.5 5.0 47 5.3 SE 35 44 19 24 1034.7 1034.7 0.0
19/12:00pm 15.4 8.4 5.9 53 4.5 SE 32 41 17 22 1034.9 1034.9 0.0
19/11:30am 14.5 8.8 6.8 60 3.7 SSE 26 33 14 18 1035.0 1035.0 0.0
19/11:00am 14.3 6.4 6.2 58 3.8 SSE 37 46 20 25 1034.7 1034.7 0.0
19/10:30am 15.5 8.4 5.7 52 4.6 SE 32 41 17 22 1034.7 1034.7 0.0
19/10:00am 15.5 9.6 7.3 58 4.0 SE 28 37 15 20 1034.6 1034.6 0.0
19/09:30am 14.0 7.1 7.1 63 3.3 SE 33 44 18 24 1034.5 1034.5 0.0
19/09:00am 15.1 8.0 5.3 52 4.6 SE 32 43 17 23 1033.8 1033.8 4.0
19/08:30am 14.2 7.2 5.8 57 3.9 SSE 32 39 17 21 1033.4 1033.4 4.0
19/08:00am 13.5 6.9 6.1 61 3.5 SSE 30 35 16 19 1032.7 1032.7 4.0
19/07:30am 12.8 7.5 6.6 66 2.9 SSE 24 32 13 17 1032.0 1032.0 4.0
19/07:00am 11.9 4.6 7.4 74 2.2 SSE 35 46 19 25 1031.4 1031.4 4.0
19/06:30am 12.2 6.6 7.3 72 2.3 S 26 35 14 19 1031.1 1031.1 4.0
19/06:00am 12.6 6.0 6.2 65 3.0 S 30 37 16 20 1030.6 1030.6 4.0
19/05:30am 12.3 5.8 6.6 68 2.7 S 30 39 16 21 1030.0 1030.0 4.0
19/05:00am 12.3 6.2 6.8 69 2.6 S 28 35 15 19 1029.5 1029.5 4.0
19/04:30am 12.3 6.6 6.8 69 2.6 S 26 35 14 19 1029.1 1029.1 4.0
19/04:00am 12.3 6.2 8.2 76 2.0 SSE 30 35 16 19 1028.8 1028.8 4.0
19/03:30am 12.2 5.7 8.1 76 2.0 SSE 32 39 17 21 1028.6 1028.6 4.0
19/03:17am 11.7 7.4 7.8 77 1.9 S 20 37 11 20 1028.5 1028.5 4.0
19/03:00am 10.8 7.9 8.2 84 1.3 SW 13 17 7 9 1028.6 1028.6 4.0
19/02:30am 11.1 7.7 9.0 87 1.0 SSW 17 24 9 13 1028.5 1028.5 4.0
19/02:00am 11.2 7.0 8.2 82 1.5 SW 20 32 11 17 1028.6 1028.6 3.6
19/01:30am 11.0 8.4 9.4 90 0.8 SSW 13 17 7 9 1028.2 1028.2 3.6
19/01:18am 11.4 8.5 9.8 90 0.8 SSW 15 19 8 10 - - 3.6
19/01:01am 11.7 6.8 9.8 88 1.0 SSW 26 39 14 21 1028.0 1028.0 3.2
19/01:00am 11.7 6.7 9.6 87 1.1 SSW 26 39 14 21 1028.0 1028.0 3.2
19/12:30am 12.0 8.3 7.9 76 2.0 SSW 17 24 9 13 1027.5 1027.5 2.8
19/12:00am 12.2 6.0 9.4 83 1.4 SSW 32 44 17 24 1027.5 1027.5 2.6
 
Date/Time
CST
Temp
°C
App
Temp
°C
Dew
Point
Rel
Hum
%
Delta-T
°C
Wind Press
QNH
hPa
Press
MSL
hPa
Rain
since 9 am
mm
Dir
 
Spd
km/h
Gust
km/h
Spd
kts
Gust
kts
18/11:54pm 12.6 7.3 9.8 83 1.4 SSW 28 37 15 20 1027.4 1027.4 2.6
18/11:30pm 11.6 8.6 7.5 76 2.0 SW 13 19 7 10 1027.1 1027.1 2.6
18/11:00pm 12.0 8.1 7.3 73 2.3 SW 17 22 9 12 1027.2 1027.2 2.6
18/10:30pm 12.2 9.2 7.7 74 2.2 SW 13 17 7 9 1026.8 1026.8 2.6
18/10:00pm 12.8 8.5 7.9 72 2.4 SSW 20 26 11 14 1026.5 1026.5 2.6
18/09:30pm 12.6 8.0 8.1 74 2.2 SSW 22 28 12 15 1026.1 1026.1 2.6
18/09:00pm 12.9 8.7 8.4 74 2.2 SW 20 28 11 15 1025.6 1025.6 2.6
18/08:30pm 12.9 8.8 8.0 72 2.4 SW 19 28 10 15 1025.0 1025.0 2.6
18/08:00pm 12.4 8.6 7.5 72 2.4 SW 17 22 9 12 1024.4 1024.4 2.6
18/07:30pm 12.7 8.9 7.6 71 2.5 SW 17 22 9 12 1024.0 1024.0 2.6
18/07:00pm 12.9 9.3 8.4 74 2.2 SW 17 20 9 11 1023.5 1023.5 2.6
18/06:30pm 13.1 9.2 8.8 75 2.1 SSW 19 24 10 13 1022.6 1022.6 2.6
18/06:00pm 13.8 9.8 9.0 73 2.4 SSW 20 28 11 15 1022.1 1022.1 2.6
18/05:30pm 14.4 11.6 11.4 82 1.6 SSW 17 20 9 11 1021.4 1021.4 2.6
18/05:00pm 14.5 11.4 11.6 83 1.6 SSW 19 26 10 14 1021.0 1021.0 2.6
18/04:30pm 13.9 8.7 11.6 86 1.2 SSW 30 43 16 23 1020.8 1020.8 2.6
18/04:20pm 13.8 8.9 11.3 85 1.3 SSW 28 46 15 25 1020.5 1020.5 2.6
18/04:00pm 14.4 10.7 12.8 90 0.9 SSW 24 30 13 16 1020.3 1020.3 2.6
18/03:30pm 14.2 10.3 13.2 94 0.6 SSW 26 33 14 18 1019.9 1019.9 2.6
18/03:26pm 14.1 10.1 13.1 94 0.6 SSW 26 33 14 18 1019.9 1019.9 2.6
18/03:25pm 14.1 10.1 13.1 94 0.6 SSW 26 33 14 18 1019.9 1019.9 2.6
18/03:00pm 14.0 8.9 13.1 94 0.5 SSW 32 39 17 21 1019.4 1019.4 2.2
18/02:30pm 14.5 9.6 13.7 95 0.4 S 32 43 17 23 1018.9 1018.9 2.0
18/02:04pm 15.7 11.9 14.7 94 0.6 SSW 28 37 15 20 1018.5 1018.5 1.6
18/02:00pm 16.0 11.9 14.9 93 0.6 SSW 30 37 16 20 1018.4 1018.4 1.6
18/01:40pm 16.1 12.4 15.1 94 0.6 SSW 28 41 15 22 1018.3 1018.3 1.6
18/01:30pm 15.7 11.9 14.6 93 0.6 SSW 28 41 15 22 1018.2 1018.2 1.6
18/01:28pm 16.4 12.9 15.6 95 0.5 SSW 28 35 15 19 1018.2 1018.2 1.6
18/01:17pm 17.4 12.8 15.0 86 1.4 W 33 41 18 22 1018.2 1018.2 0.4
18/01:00pm 18.5 14.6 15.4 82 1.8 WNW 30 39 16 21 1017.7 1017.7 0.0
18/12:57pm 18.4 15.0 15.8 85 1.5 WNW 28 37 15 20 1017.8 1017.8 0.0
18/12:33pm 17.8 12.7 14.9 83 1.7 W 35 46 19 25 1018.1 1018.1 0.0
18/12:30pm 18.6 13.8 14.7 78 2.3 W 33 46 18 25 1018.1 1018.1 0.0
18/12:02pm 18.4 14.6 15.8 85 1.5 W 30 39 16 21 1018.2 1018.2 0.0
18/12:00pm 18.1 14.4 15.9 87 1.3 W 30 39 16 21 1018.2 1018.2 0.0
18/11:44am 17.3 11.5 14.9 86 1.4 WSW 39 56 21 30 1018.4 1018.4 0.0
18/11:38am 19.6 13.9 13.1 66 3.7 W 35 56 19 30 1018.1 1018.1 0.0
18/11:30am 19.7 15.5 13.4 67 3.6 W 28 43 15 23 1018.1 1018.1 0.0
18/11:00am 19.4 14.0 12.9 66 3.7 WNW 33 46 18 25 1018.0 1018.0 0.0
18/10:30am 19.7 15.0 14.3 71 3.1 WNW 32 46 17 25 1018.2 1018.2 0.0
18/10:00am 19.0 14.1 13.8 72 3.0 WNW 32 46 17 25 1018.1 1018.1 0.0
18/09:30am 18.4 14.5 14.5 78 2.2 WNW 28 41 15 22 1018.2 1018.2 0.0
18/09:00am 17.2 12.4 14.1 82 1.8 WNW 32 43 17 23 1018.2 1018.2 3.4
18/08:30am 16.4 12.3 13.7 84 1.5 WNW 28 37 15 20 1017.9 1017.9 3.4
18/08:00am 15.4 12.7 13.4 88 1.1 WNW 20 30 11 16 1017.7 1017.7 3.4
18/07:31am 14.6 11.5 13.3 92 0.7 W 22 33 12 18 1017.5 1017.5 3.4
18/07:30am 14.6 11.5 13.3 92 0.7 W 22 33 12 18 1017.5 1017.5 3.4
18/07:17am 14.0 11.9 12.4 90 0.9 NW 15 20 8 11 1017.4 1017.4 3.4
18/07:00am 13.4 11.4 11.5 88 1.0 NW 13 17 7 9 1017.3 1017.3 3.4
18/06:30am 12.8 10.7 11.0 89 0.9 NW 13 19 7 10 1017.1 1017.1 3.4
18/06:00am 12.3 10.5 10.7 90 0.8 NNW 11 17 6 9 1016.9 1016.9 3.4
18/05:30am 12.3 9.3 10.7 90 0.8 NW 17 22 9 12 1017.0 1017.0 3.4
18/05:00am 11.6 9.6 10.0 90 0.8 NW 11 17 6 9 1016.9 1016.9 3.4
18/04:30am 11.8 8.2 9.9 88 1.0 NW 19 24 10 13 1016.7 1016.7 3.4
18/04:00am 12.2 8.7 10.3 88 1.0 NW 19 24 10 13 1016.8 1016.8 3.4
18/03:30am 11.5 8.3 9.8 89 0.9 NW 17 24 9 13 1016.7 1016.7 3.4
18/03:00am 10.9 8.3 9.5 91 0.7 WNW 13 17 7 9 1016.8 1016.8 3.4
18/02:30am 10.2 7.8 8.8 91 0.7 WNW 11 13 6 7 1017.1 1017.1 3.4
18/02:00am 10.3 7.5 8.7 90 0.8 WNW 13 15 7 8 1017.4 1017.4 3.4
18/01:30am 10.4 7.7 9.0 91 0.7 WNW 13 13 7 7 1017.8 1017.8 3.4
18/01:00am 11.2 9.0 9.3 88 1.0 NNW 11 15 6 8 1018.0 1018.0 3.4
18/12:30am 12.9 10.1 10.1 83 1.4 WNW 15 17 8 9 1018.4 1018.4 3.4
18/12:00am 11.1 8.5 9.2 88 0.9 WNW 13 17 7 9 1018.7 1018.7 3.4
 
Date/Time
CST
Temp
°C
App
Temp
°C
Dew
Point
Rel
Hum
%
Delta-T
°C
Wind Press
QNH
hPa
Press
MSL
hPa
Rain
since 9 am
mm
Dir
 
Spd
km/h
Gust
km/h
Spd
kts
Gust
kts
17/11:30pm 11.0 8.2 8.6 85 1.2 WNW 13 17 7 9 1018.9 1018.9 3.4
17/11:00pm 11.1 8.5 9.5 90 0.8 WNW 13 15 7 8 1019.2 1019.2 3.4
17/10:30pm 12.0 10.0 10.1 88 1.0 WNW 11 15 6 8 1019.4 1019.4 3.4
17/10:00pm 13.3 11.1 10.7 84 1.4 W 13 15 7 8 1019.6 1019.6 3.4
17/09:30pm 13.5 11.3 10.9 84 1.4 WSW 13 17 7 9 1019.6 1019.6 3.4
17/09:00pm 13.7 12.0 11.2 85 1.3 WSW 11 15 6 8 1019.4 1019.4 3.4
17/08:30pm 12.8 10.7 11.2 90 0.8 W 13 13 7 7 1019.2 1019.2 3.4
17/08:00pm 12.3 10.0 10.4 88 1.0 W 13 15 7 8 1019.0 1019.0 3.4
17/07:30pm 13.4 11.3 11.1 86 1.2 WSW 13 15 7 8 1018.8 1018.8 3.4
17/07:00pm 14.8 13.2 11.4 80 1.8 SW 11 15 6 8 1018.5 1018.5 3.4
17/06:30pm 15.3 13.1 12.1 81 1.7 SSW 15 20 8 11 1018.3 1018.3 3.4
17/06:00pm 15.0 12.7 11.8 81 1.7 SSW 15 19 8 10 1018.0 1018.0 3.4
17/05:30pm 15.6 13.2 12.5 82 1.7 SSW 17 20 9 11 1017.6 1017.6 3.4
17/05:00pm 15.9 13.7 13.2 84 1.5 S 17 24 9 13 1017.5 1017.5 3.4
17/04:30pm 16.0 13.5 13.5 85 1.4 S 19 22 10 12 1017.5 1017.5 3.4
17/04:00pm 16.2 14.2 13.9 86 1.3 S 17 20 9 11 1017.4 1017.4 3.4
17/03:30pm 15.5 12.3 13.0 85 1.4 SSW 22 30 12 16 1017.6 1017.6 3.4
17/03:00pm 15.7 13.3 14.4 92 0.7 SSE 20 26 11 14 1017.8 1017.8 3.4
17/02:44pm 15.7 14.4 14.7 94 0.6 SSE 15 19 8 10 1017.9 1017.9 3.4
17/02:39pm 15.6 14.6 14.6 94 0.6 SSE 13 17 7 9 1018.0 1018.0 3.4
17/02:30pm 15.6 13.9 14.6 94 0.6 S 17 24 9 13 1018.1 1018.1 3.4
17/02:24pm 15.4 12.9 14.1 92 0.7 S 20 24 11 13 1018.1 1018.1 3.2
17/02:23pm 15.5 13.2 14.0 91 0.8 S 19 24 10 13 1018.1 1018.1 3.2
17/02:00pm 16.3 14.3 14.0 86 1.3 SSE 17 20 9 11 1018.0 1018.0 3.0
17/01:52pm 16.2 14.2 14.0 87 1.2 SSE 17 20 9 11 1018.1 1018.1 3.0
17/01:40pm 15.9 13.5 13.7 87 1.2 SSE 19 24 10 13 1018.1 1018.1 3.0
17/01:30pm 16.4 14.1 14.1 86 1.3 SSE 19 22 10 12 1018.2 1018.2 3.0
17/01:00pm 16.2 13.3 13.9 86 1.3 SSE 22 26 12 14 1018.6 1018.6 3.0
17/12:30pm 16.3 13.7 14.8 91 0.9 SE 22 28 12 15 1019.0 1019.0 3.0
17/12:27pm 16.2 13.6 14.9 92 0.7 SE 22 26 12 14 1019.1 1019.1 3.0
17/12:00pm 15.6 12.5 14.6 94 0.6 SSE 24 30 13 16 1019.6 1019.6 3.0
17/11:30am 15.6 12.5 14.6 94 0.6 SE 24 30 13 16 1020.2 1020.2 3.0
17/11:03am 15.7 12.8 15.1 96 0.3 SE 24 28 13 15 1020.5 1020.5 3.0
17/11:00am 15.7 12.8 15.1 96 0.3 SE 24 28 13 15 1020.5 1020.5 3.0
17/10:30am 15.0 11.9 14.4 96 0.3 ESE 24 30 13 16 1020.6 1020.6 3.0
17/10:16am 15.0 12.6 14.4 96 0.3 ESE 20 26 11 14 1020.9 1020.9 2.8
17/10:00am 14.9 12.5 14.4 97 0.3 SE 20 28 11 15 1021.2 1021.2 2.4
17/09:41am 14.6 12.3 14.1 97 0.3 SSE 19 24 10 13 1021.4 1021.4 2.0
17/09:30am 14.7 12.4 14.2 97 0.3 SSE 19 24 10 13 1021.5 1021.5 1.4
17/09:00am 14.5 12.4 13.7 95 0.4 SE 17 22 9 12 1021.8 1021.8 19.0
17/08:40am 14.6 11.9 13.5 93 0.6 SE 20 26 11 14 1021.8 1021.8 17.8
17/08:33am 14.8 12.3 13.5 92 0.7 SSE 19 28 10 15 1021.8 1021.8 17.6
17/08:30am 14.8 12.1 13.5 92 0.7 SSE 20 28 11 15 1021.7 1021.7 17.6
17/08:25am 14.8 11.7 13.3 91 0.8 SSE 22 28 12 15 1021.7 1021.7 17.4
17/08:13am 14.9 11.8 13.3 90 0.9 SSE 22 32 12 17 1021.7 1021.7 17.4
17/08:00am 14.8 12.0 13.3 91 0.8 SSE 20 26 11 14 1021.5 1021.5 17.4
17/07:30am 15.0 11.6 13.7 92 0.7 SSE 24 32 13 17 1021.0 1021.0 17.4
17/07:00am 14.6 10.7 13.3 92 0.7 SSE 26 33 14 18 1020.6 1020.6 17.4
17/06:42am 14.7 10.6 13.9 95 0.4 SSE 28 37 15 20 1020.7 1020.7 17.4
17/06:37am 14.8 10.8 14.0 95 0.4 SSE 28 37 15 20 1020.7 1020.7 17.4
17/06:30am 14.7 10.7 14.1 96 0.3 SSE 28 35 15 19 1020.6 1020.6 17.4
17/06:14am 14.6 12.1 14.1 97 0.3 SE 20 24 11 13 1020.6 1020.6 17.2
17/06:00am 14.4 11.1 13.9 97 0.3 SE 24 33 13 18 1020.6 1020.6 17.0
17/05:49am 14.3 9.8 13.8 97 0.3 SE 30 33 16 18 1020.7 1020.7 16.6
17/05:39am 14.6 10.6 14.0 96 0.3 SSE 28 35 15 19 1020.8 1020.8 16.6
17/05:30am 14.6 10.1 13.8 95 0.4 SSE 30 35 16 19 1020.8 1020.8 16.2
17/05:28am 14.8 10.4 14.0 95 0.4 SSE 30 37 16 20 1020.8 1020.8 16.2
17/05:17am 15.2 11.9 14.1 93 0.6 SSE 24 32 13 17 1020.8 1020.8 16.2
17/05:00am 15.5 12.7 14.2 92 0.7 SE 22 28 12 15 1020.7 1020.7 16.2
17/04:46am 15.3 11.9 13.8 91 0.8 SSE 24 32 13 17 1020.6 1020.6 16.2
17/04:30am 15.4 12.6 14.4 94 0.6 SE 22 28 12 15 1020.8 1020.8 16.2
17/04:16am 15.3 13.1 14.5 95 0.5 SE 19 24 10 13 1020.7 1020.7 16.2
17/04:00am 15.2 13.0 14.4 95 0.5 SE 19 24 10 13 1020.7 1020.7 16.2
17/03:56am 15.2 13.0 14.4 95 0.5 SE 19 24 10 13 1020.8 1020.8 16.0
17/03:30am 15.3 13.1 14.5 95 0.5 SE 19 26 10 14 1020.8 1020.8 15.8
17/03:00am 15.3 13.1 14.5 95 0.5 ESE 19 20 10 11 1021.1 1021.1 15.8
17/02:58am 15.2 13.4 14.4 95 0.5 ESE 17 20 9 11 1021.1 1021.1 15.8
17/02:48am 15.3 13.5 14.5 95 0.5 ESE 17 20 9 11 1021.4 1021.4 15.8
17/02:30am 15.3 13.6 14.7 96 0.3 ESE 17 20 9 11 1021.5 1021.5 15.6
17/02:20am 15.2 13.5 14.6 96 0.3 SE 17 20 9 11 1021.7 1021.7 15.6
17/02:00am 15.1 13.7 14.5 96 0.3 SE 15 19 8 10 1022.1 1022.1 15.6
17/01:30am 15.1 13.3 14.5 96 0.3 ESE 17 20 9 11 1022.6 1022.6 15.6
17/01:03am 15.1 13.3 14.5 96 0.3 ESE 17 22 9 12 1022.9 1022.9 15.4
17/01:00am 15.1 13.3 14.5 96 0.3 ESE 17 22 9 12 1023.0 1023.0 15.2
17/12:30am 15.2 12.9 14.6 96 0.3 SE 20 28 11 15 1023.2 1023.2 14.8
17/12:00am 15.1 12.4 14.5 96 0.3 SE 22 28 12 15 1023.5 1023.5 14.2
 
Date/Time
CST
Temp
°C
App
Temp
°C
Dew
Point
Rel
Hum
%
Delta-T
°C
Wind Press
QNH
hPa
Press
MSL
hPa
Rain
since 9 am
mm
Dir
 
Spd
km/h
Gust
km/h
Spd
kts
Gust
kts
16/11:30pm 15.2 12.9 14.6 96 0.3 SE 20 26 11 14 1023.8 1023.8 13.4
16/11:00pm 15.2 12.5 14.6 96 0.3 SE 22 28 12 15 1023.9 1023.9 12.8
16/10:59pm 15.1 12.4 14.5 96 0.3 SE 22 28 12 15 1023.9 1023.9 12.8
16/10:52pm 15.2 12.5 14.6 96 0.3 SE 22 28 12 15 1024.0 1024.0 12.8
16/10:32pm 15.2 12.5 14.6 96 0.3 SE 22 28 12 15 1024.2 1024.2 12.6
16/10:30pm 15.2 12.5 14.6 96 0.3 SE 22 28 12 15 1024.2 1024.2 12.4
16/10:00pm 15.1 11.5 14.3 95 0.5 SE 26 32 14 17 1024.4 1024.4 12.0
16/09:45pm 15.1 11.5 14.3 95 0.5 SE 26 35 14 19 1024.4 1024.4 11.8
16/09:30pm 15.3 11.8 14.5 95 0.5 SE 26 33 14 18 1024.4 1024.4 11.4
16/09:17pm 15.3 12.2 14.5 95 0.5 SE 24 32 13 17 1024.5 1024.5 11.0
16/09:00pm 15.2 11.2 14.2 94 0.6 SE 28 37 15 20 1024.4 1024.4 10.8
16/08:30pm 15.3 11.7 14.3 94 0.6 SE 26 32 14 17 1024.5 1024.5 10.4
16/08:00pm 15.5 11.7 14.7 95 0.5 SE 28 33 15 18 1024.4 1024.4 10.2
16/07:30pm 15.6 13.0 15.0 96 0.3 SE 22 30 12 16 1024.3 1024.3 9.6
16/07:00pm 15.5 12.5 14.9 96 0.3 SE 24 28 13 15 1024.3 1024.3 9.4
16/06:58pm 15.5 12.5 14.9 96 0.3 SE 24 30 13 16 1024.2 1024.2 9.4
16/06:55pm 15.6 12.7 15.0 96 0.3 SE 24 30 13 16 1024.2 1024.2 9.2

Other Formats:

Comma delimited format used in spreadsheet applications
http://www.bom.gov.au/fwo/IDS60801/IDS60801.95661.axf

JavaScript Object Notation format (JSON) in row-major order
http://www.bom.gov.au/fwo/IDS60801/IDS60801.95661.json